sensor_id;sensor_type;location;lat;lon;timestamp;pressure;altitude;pressure_sealevel;temperature;humidity
69879;BME280;57161;43.136;24.706;2024-01-27T00:00:23;99799.22;;;2.97;66.40
69879;BME280;57161;43.136;24.706;2024-01-27T00:02:48;99801.72;;;2.95;66.49
69879;BME280;57161;43.136;24.706;2024-01-27T00:05:14;99797.31;;;2.89;66.89
69879;BME280;57161;43.136;24.706;2024-01-27T00:07:39;99797.44;;;2.80;66.98
69879;BME280;57161;43.136;24.706;2024-01-27T00:10:06;99800.19;;;2.80;67.15
69879;BME280;57161;43.136;24.706;2024-01-27T00:12:31;99817.53;;;2.80;67.28
69879;BME280;57161;43.136;24.706;2024-01-27T00:14:57;99812.66;;;2.75;67.36
69879;BME280;57161;43.136;24.706;2024-01-27T00:17:23;99820.16;;;2.75;67.67
69879;BME280;57161;43.136;24.706;2024-01-27T00:19:51;99807.44;;;2.77;67.42
69879;BME280;57161;43.136;24.706;2024-01-27T00:22:16;99797.44;;;2.65;68.01
69879;BME280;57161;43.136;24.706;2024-01-27T00:24:42;99811.13;;;2.74;67.67
69879;BME280;57161;43.136;24.706;2024-01-27T00:27:08;99794.97;;;2.67;67.73
69879;BME280;57161;43.136;24.706;2024-01-27T00:29:33;99789.25;;;2.70;68.38
69879;BME280;57161;43.136;24.706;2024-01-27T00:31:59;99776.78;;;2.60;68.42
69879;BME280;57161;43.136;24.706;2024-01-27T00:34:24;99757.56;;;2.51;68.51
69879;BME280;57161;43.136;24.706;2024-01-27T00:36:51;99758.41;;;2.57;68.62
69879;BME280;57161;43.136;24.706;2024-01-27T00:39:16;99758.59;;;2.54;68.48
69879;BME280;57161;43.136;24.706;2024-01-27T00:41:42;99756.97;;;2.32;68.98
69879;BME280;57161;43.136;24.706;2024-01-27T00:44:08;99780.94;;;2.41;69.61
69879;BME280;57161;43.136;24.706;2024-01-27T00:46:34;99788.84;;;2.33;69.85
69879;BME280;57161;43.136;24.706;2024-01-27T00:48:59;99755.63;;;2.13;69.90
69879;BME280;57161;43.136;24.706;2024-01-27T00:51:24;99757.03;;;2.08;70.24
69879;BME280;57161;43.136;24.706;2024-01-27T00:53:50;99779.22;;;2.29;69.99
69879;BME280;57161;43.136;24.706;2024-01-27T00:56:15;99785.78;;;2.31;70.00
69879;BME280;57161;43.136;24.706;2024-01-27T00:58:41;99787.13;;;2.36;69.85
69879;BME280;57161;43.136;24.706;2024-01-27T01:01:07;99772.19;;;2.28;69.85
69879;BME280;57161;43.136;24.706;2024-01-27T01:03:32;99764.97;;;2.30;70.09
69879;BME280;57161;43.136;24.706;2024-01-27T01:05:57;99736.91;;;2.17;69.97
69879;BME280;57161;43.136;24.706;2024-01-27T01:08:23;99750.31;;;2.39;70.12
69879;BME280;57161;43.136;24.706;2024-01-27T01:10:49;99750.44;;;2.45;69.88
69879;BME280;57161;43.136;24.706;2024-01-27T01:13:14;99751.56;;;2.38;69.77
69879;BME280;57161;43.136;24.706;2024-01-27T01:15:40;99746.59;;;2.27;70.26
69879;BME280;57161;43.136;24.706;2024-01-27T01:18:05;99739.28;;;2.24;70.29
69879;BME280;57161;43.136;24.706;2024-01-27T01:20:31;99724.72;;;2.24;70.77
69879;BME280;57161;43.136;24.706;2024-01-27T01:22:58;99717.97;;;2.10;70.65
69879;BME280;57161;43.136;24.706;2024-01-27T01:25:23;99730.44;;;2.20;70.59
69879;BME280;57161;43.136;24.706;2024-01-27T01:27:49;99722.16;;;2.20;70.38
69879;BME280;57161;43.136;24.706;2024-01-27T01:30:16;99734.91;;;2.32;70.19
69879;BME280;57161;43.136;24.706;2024-01-27T01:32:42;99733.50;;;2.37;69.60
69879;BME280;57161;43.136;24.706;2024-01-27T01:35:08;99729.28;;;2.41;69.48
69879;BME280;57161;43.136;24.706;2024-01-27T01:37:35;99681.28;;;2.04;69.68
69879;BME280;57161;43.136;24.706;2024-01-27T01:40:00;99725.50;;;2.39;69.56
69879;BME280;57161;43.136;24.706;2024-01-27T01:42:26;99690.03;;;2.17;69.69
69879;BME280;57161;43.136;24.706;2024-01-27T01:44:51;99719.78;;;2.42;69.79
69879;BME280;57161;43.136;24.706;2024-01-27T01:47:17;99698.97;;;2.27;69.59
69879;BME280;57161;43.136;24.706;2024-01-27T01:49:43;99691.56;;;2.18;69.96
69879;BME280;57161;43.136;24.706;2024-01-27T01:52:09;99719.91;;;2.33;70.18
69879;BME280;57161;43.136;24.706;2024-01-27T01:54:36;99710.38;;;2.34;70.05
69879;BME280;57161;43.136;24.706;2024-01-27T01:57:03;99700.03;;;2.29;69.67
69879;BME280;57161;43.136;24.706;2024-01-27T01:59:28;99683.09;;;2.22;69.54
69879;BME280;57161;43.136;24.706;2024-01-27T02:01:54;99716.19;;;2.36;70.06
69879;BME280;57161;43.136;24.706;2024-01-27T02:04:19;99714.66;;;2.21;70.36
69879;BME280;57161;43.136;24.706;2024-01-27T02:06:45;99724.84;;;2.29;70.20
69879;BME280;57161;43.136;24.706;2024-01-27T02:09:10;99715.22;;;2.25;70.49
69879;BME280;57161;43.136;24.706;2024-01-27T02:11:36;99702.66;;;2.24;70.27
69879;BME280;57161;43.136;24.706;2024-01-27T02:14:02;99701.06;;;2.32;70.58
69879;BME280;57161;43.136;24.706;2024-01-27T02:16:27;99701.34;;;2.34;70.61
69879;BME280;57161;43.136;24.706;2024-01-27T02:18:53;99670.25;;;2.19;70.58
69879;BME280;57161;43.136;24.706;2024-01-27T02:21:18;99687.84;;;2.36;70.41
69879;BME280;57161;43.136;24.706;2024-01-27T02:23:44;99693.44;;;2.27;70.59
69879;BME280;57161;43.136;24.706;2024-01-27T02:26:09;99695.72;;;2.43;70.46
69879;BME280;57161;43.136;24.706;2024-01-27T02:28:35;99682.72;;;2.29;70.87
69879;BME280;57161;43.136;24.706;2024-01-27T02:31:01;99677.00;;;2.32;70.97
69879;BME280;57161;43.136;24.706;2024-01-27T02:33:26;99673.38;;;2.26;71.31
69879;BME280;57161;43.136;24.706;2024-01-27T02:35:52;99685.00;;;2.45;70.87
69879;BME280;57161;43.136;24.706;2024-01-27T02:38:17;99679.94;;;2.44;70.79
69879;BME280;57161;43.136;24.706;2024-01-27T02:40:43;99632.97;;;2.08;70.46
69879;BME280;57161;43.136;24.706;2024-01-27T02:43:08;99633.56;;;2.13;70.51
69879;BME280;57161;43.136;24.706;2024-01-27T02:45:34;99662.84;;;2.25;70.61
69879;BME280;57161;43.136;24.706;2024-01-27T02:47:59;99638.28;;;2.27;70.20
69879;BME280;57161;43.136;24.706;2024-01-27T02:50:24;99623.66;;;2.35;70.09
69879;BME280;57161;43.136;24.706;2024-01-27T02:52:50;99616.16;;;2.36;69.97
69879;BME280;57161;43.136;24.706;2024-01-27T02:55:16;99605.13;;;2.21;69.68
69879;BME280;57161;43.136;24.706;2024-01-27T02:57:41;99506.25;;;1.64;69.91
69879;BME280;57161;43.136;24.706;2024-01-27T03:00:07;99612.56;;;2.30;70.20
69879;BME280;57161;43.136;24.706;2024-01-27T03:02:33;99582.31;;;2.06;70.19
69879;BME280;57161;43.136;24.706;2024-01-27T03:04:58;99640.53;;;2.58;70.17
69879;BME280;57161;43.136;24.706;2024-01-27T03:07:24;99600.63;;;2.53;69.67
69879;BME280;57161;43.136;24.706;2024-01-27T03:09:49;99640.28;;;2.91;69.18
69879;BME280;57161;43.136;24.706;2024-01-27T03:12:15;99625.16;;;2.86;68.84
69879;BME280;57161;43.136;24.706;2024-01-27T03:14:41;99634.97;;;2.87;68.84
69879;BME280;57161;43.136;24.706;2024-01-27T03:17:07;99588.03;;;2.67;68.90
69879;BME280;57161;43.136;24.706;2024-01-27T03:19:33;99618.94;;;2.91;69.20
69879;BME280;57161;43.136;24.706;2024-01-27T03:21:58;99590.19;;;2.78;69.42
69879;BME280;57161;43.136;24.706;2024-01-27T03:24:24;99630.63;;;3.01;69.49
69879;BME280;57161;43.136;24.706;2024-01-27T03:26:49;99601.84;;;2.87;69.33
69879;BME280;57161;43.136;24.706;2024-01-27T03:29:15;99612.00;;;3.16;68.28
69879;BME280;57161;43.136;24.706;2024-01-27T03:31:40;99619.25;;;3.14;68.02
69879;BME280;57161;43.136;24.706;2024-01-27T03:34:06;99606.75;;;3.18;68.03
69879;BME280;57161;43.136;24.706;2024-01-27T03:36:31;99597.66;;;3.12;67.66
69879;BME280;57161;43.136;24.706;2024-01-27T03:38:58;99605.03;;;3.21;67.29
69879;BME280;57161;43.136;24.706;2024-01-27T03:41:24;99597.44;;;3.16;67.46
69879;BME280;57161;43.136;24.706;2024-01-27T03:43:50;99601.16;;;3.33;67.26
69879;BME280;57161;43.136;24.706;2024-01-27T03:46:15;99594.53;;;3.45;66.42
69879;BME280;57161;43.136;24.706;2024-01-27T03:48:41;99586.53;;;3.47;65.93
69879;BME280;57161;43.136;24.706;2024-01-27T03:51:07;99578.06;;;3.56;65.67
69879;BME280;57161;43.136;24.706;2024-01-27T03:53:33;99551.91;;;3.52;65.21
69879;BME280;57161;43.136;24.706;2024-01-27T03:56:01;99573.28;;;3.57;65.76
69879;BME280;57161;43.136;24.706;2024-01-27T03:58:29;99565.50;;;3.55;65.58
69879;BME280;57161;43.136;24.706;2024-01-27T04:00:56;99556.44;;;3.55;65.43
69879;BME280;57161;43.136;24.706;2024-01-27T04:03:22;99557.59;;;3.69;65.34
69879;BME280;57161;43.136;24.706;2024-01-27T04:05:47;99545.47;;;3.60;65.63
69879;BME280;57161;43.136;24.706;2024-01-27T04:08:15;99551.00;;;3.60;65.70
69879;BME280;57161;43.136;24.706;2024-01-27T04:10:41;99551.94;;;3.57;66.04
69879;BME280;57161;43.136;24.706;2024-01-27T04:13:06;99532.78;;;3.48;65.39
69879;BME280;57161;43.136;24.706;2024-01-27T04:15:35;99546.81;;;3.71;65.07
69879;BME280;57161;43.136;24.706;2024-01-27T04:18:04;99514.16;;;3.43;65.29
69879;BME280;57161;43.136;24.706;2024-01-27T04:20:31;99547.28;;;3.69;65.20
69879;BME280;57161;43.136;24.706;2024-01-27T04:22:56;99542.25;;;3.68;65.09
69879;BME280;57161;43.136;24.706;2024-01-27T04:25:21;99525.78;;;3.53;65.45
69879;BME280;57161;43.136;24.706;2024-01-27T04:27:47;99498.00;;;3.36;65.64
69879;BME280;57161;43.136;24.706;2024-01-27T04:30:12;99545.06;;;3.73;64.86
69879;BME280;57161;43.136;24.706;2024-01-27T04:32:38;99524.38;;;3.63;64.92
69879;BME280;57161;43.136;24.706;2024-01-27T04:35:04;99526.44;;;3.68;64.03
69879;BME280;57161;43.136;24.706;2024-01-27T04:37:30;99541.16;;;3.85;63.90
69879;BME280;57161;43.136;24.706;2024-01-27T04:39:55;99424.47;;;3.13;63.48
69879;BME280;57161;43.136;24.706;2024-01-27T04:42:22;99524.31;;;3.83;63.32
69879;BME280;57161;43.136;24.706;2024-01-27T04:44:47;99558.63;;;4.03;63.48
69879;BME280;57161;43.136;24.706;2024-01-27T04:47:13;99561.44;;;3.77;64.37
69879;BME280;57161;43.136;24.706;2024-01-27T04:49:38;99581.44;;;3.92;63.00
69879;BME280;57161;43.136;24.706;2024-01-27T04:52:04;99557.50;;;3.89;60.74
69879;BME280;57161;43.136;24.706;2024-01-27T04:54:29;99572.66;;;4.25;58.71
69879;BME280;57161;43.136;24.706;2024-01-27T04:56:55;99601.06;;;4.57;58.60
69879;BME280;57161;43.136;24.706;2024-01-27T04:59:20;99584.00;;;4.70;57.23
69879;BME280;57161;43.136;24.706;2024-01-27T05:01:46;99587.69;;;4.93;58.11
69879;BME280;57161;43.136;24.706;2024-01-27T05:04:12;99553.63;;;4.75;58.89
69879;BME280;57161;43.136;24.706;2024-01-27T05:06:38;99596.38;;;5.23;60.46
69879;BME280;57161;43.136;24.706;2024-01-27T05:09:06;99602.94;;;5.25;62.08
69879;BME280;57161;43.136;24.706;2024-01-27T05:11:32;99601.34;;;5.07;63.25
69879;BME280;57161;43.136;24.706;2024-01-27T05:14:01;99570.81;;;4.96;63.42
69879;BME280;57161;43.136;24.706;2024-01-27T05:16:30;99590.28;;;5.07;64.55
69879;BME280;57161;43.136;24.706;2024-01-27T05:18:57;99552.41;;;4.88;64.84
69879;BME280;57161;43.136;24.706;2024-01-27T05:21:22;99570.00;;;4.85;66.07
69879;BME280;57161;43.136;24.706;2024-01-27T05:23:48;99591.72;;;4.92;66.74
69879;BME280;57161;43.136;24.706;2024-01-27T05:26:13;99608.09;;;4.95;67.59
69879;BME280;57161;43.136;24.706;2024-01-27T05:28:39;99599.59;;;5.04;68.13
69879;BME280;57161;43.136;24.706;2024-01-27T05:31:08;99549.34;;;4.74;68.68
69879;BME280;57161;43.136;24.706;2024-01-27T05:33:38;99590.53;;;5.09;68.75
69879;BME280;57161;43.136;24.706;2024-01-27T05:36:04;99590.03;;;5.11;69.59
69879;BME280;57161;43.136;24.706;2024-01-27T05:38:31;99584.19;;;5.03;70.80
69879;BME280;57161;43.136;24.706;2024-01-27T05:41:01;99594.06;;;5.16;71.35
69879;BME280;57161;43.136;24.706;2024-01-27T05:43:29;99577.13;;;5.02;71.60
69879;BME280;57161;43.136;24.706;2024-01-27T05:45:55;99593.00;;;5.02;72.64
69879;BME280;57161;43.136;24.706;2024-01-27T05:48:20;99587.28;;;5.17;72.89
69879;BME280;57161;43.136;24.706;2024-01-27T05:50:56;99578.41;;;5.01;73.75
69879;BME280;57161;43.136;24.706;2024-01-27T05:53:22;99588.25;;;5.08;74.77
69879;BME280;57161;43.136;24.706;2024-01-27T05:55:47;99577.09;;;4.91;75.56
69879;BME280;57161;43.136;24.706;2024-01-27T05:58:13;99568.31;;;4.98;75.88
69879;BME280;57161;43.136;24.706;2024-01-27T06:00:38;99562.25;;;4.89;76.88
69879;BME280;57161;43.136;24.706;2024-01-27T06:03:04;99547.34;;;4.80;77.31
69879;BME280;57161;43.136;24.706;2024-01-27T06:05:29;99558.75;;;4.99;78.01
69879;BME280;57161;43.136;24.706;2024-01-27T06:07:55;99544.38;;;4.90;78.56
69879;BME280;57161;43.136;24.706;2024-01-27T06:10:20;99558.47;;;4.92;78.99
69879;BME280;57161;43.136;24.706;2024-01-27T06:12:46;99535.31;;;4.95;79.68
69879;BME280;57161;43.136;24.706;2024-01-27T06:15:12;99546.91;;;4.99;80.18
69879;BME280;57161;43.136;24.706;2024-01-27T06:17:37;99503.81;;;4.81;80.42
69879;BME280;57161;43.136;24.706;2024-01-27T06:20:03;99481.84;;;4.66;81.00
69879;BME280;57161;43.136;24.706;2024-01-27T06:22:29;99537.16;;;5.15;81.21
69879;BME280;57161;43.136;24.706;2024-01-27T06:24:57;99538.16;;;5.17;81.62
69879;BME280;57161;43.136;24.706;2024-01-27T06:27:22;99537.16;;;5.20;82.11
69879;BME280;57161;43.136;24.706;2024-01-27T06:29:48;99526.59;;;5.13;82.13
69879;BME280;57161;43.136;24.706;2024-01-27T06:32:13;99484.66;;;4.72;82.88
69879;BME280;57161;43.136;24.706;2024-01-27T06:34:39;99488.44;;;4.74;83.45
69879;BME280;57161;43.136;24.706;2024-01-27T06:37:04;99513.19;;;5.00;83.90
69879;BME280;57161;43.136;24.706;2024-01-27T06:39:30;99491.56;;;5.04;84.38
69879;BME280;57161;43.136;24.706;2024-01-27T06:41:55;99530.16;;;5.25;84.51
69879;BME280;57161;43.136;24.706;2024-01-27T06:44:21;99527.38;;;5.25;84.46
69879;BME280;57161;43.136;24.706;2024-01-27T06:46:46;99498.38;;;5.15;84.66
69879;BME280;57161;43.136;24.706;2024-01-27T06:49:15;99514.03;;;5.34;84.28
69879;BME280;57161;43.136;24.706;2024-01-27T06:51:41;99495.16;;;5.33;84.60
69879;BME280;57161;43.136;24.706;2024-01-27T06:54:07;99480.75;;;5.12;85.49
69879;BME280;57161;43.136;24.706;2024-01-27T06:56:32;99508.03;;;5.41;85.87
69879;BME280;57161;43.136;24.706;2024-01-27T06:59:01;99522.41;;;5.57;86.37
69879;BME280;57161;43.136;24.706;2024-01-27T07:01:26;99526.47;;;5.72;85.67
69879;BME280;57161;43.136;24.706;2024-01-27T07:03:52;99508.31;;;5.83;85.33
69879;BME280;57161;43.136;24.706;2024-01-27T07:06:17;99492.19;;;5.70;85.01
69879;BME280;57161;43.136;24.706;2024-01-27T07:08:43;99490.44;;;5.72;84.84
69879;BME280;57161;43.136;24.706;2024-01-27T07:11:08;99528.25;;;6.20;83.98
69879;BME280;57161;43.136;24.706;2024-01-27T07:13:33;99511.34;;;6.01;83.28
69879;BME280;57161;43.136;24.706;2024-01-27T07:15:59;99531.25;;;6.39;82.91
69879;BME280;57161;43.136;24.706;2024-01-27T07:18:24;99469.75;;;6.07;82.83
69879;BME280;57161;43.136;24.706;2024-01-27T07:20:51;99532.75;;;6.46;82.22
69879;BME280;57161;43.136;24.706;2024-01-27T07:23:17;99527.22;;;6.40;82.21
69879;BME280;57161;43.136;24.706;2024-01-27T07:25:43;99525.19;;;6.41;81.47
69879;BME280;57161;43.136;24.706;2024-01-27T07:28:08;99485.63;;;6.18;81.50
69879;BME280;57161;43.136;24.706;2024-01-27T07:30:34;99523.16;;;6.47;81.60
69879;BME280;57161;43.136;24.706;2024-01-27T07:32:59;99504.25;;;6.34;81.49
69879;BME280;57161;43.136;24.706;2024-01-27T07:35:25;99529.16;;;6.73;80.75
69879;BME280;57161;43.136;24.706;2024-01-27T07:37:50;99536.72;;;6.78;80.38
69879;BME280;57161;43.136;24.706;2024-01-27T07:40:16;99521.84;;;6.65;79.84
69879;BME280;57161;43.136;24.706;2024-01-27T07:42:41;99524.38;;;6.62;80.04
69879;BME280;57161;43.136;24.706;2024-01-27T07:45:07;99518.34;;;6.58;79.55
69879;BME280;57161;43.136;24.706;2024-01-27T07:47:34;99527.69;;;6.61;79.15
69879;BME280;57161;43.136;24.706;2024-01-27T07:49:59;99549.34;;;6.74;78.86
69879;BME280;57161;43.136;24.706;2024-01-27T07:52:25;99568.03;;;6.84;79.68
69879;BME280;57161;43.136;24.706;2024-01-27T07:54:50;99558.72;;;6.71;79.62
69879;BME280;57161;43.136;24.706;2024-01-27T07:57:16;99569.28;;;6.78;79.51
69879;BME280;57161;43.136;24.706;2024-01-27T07:59:41;99552.16;;;6.62;79.47
69879;BME280;57161;43.136;24.706;2024-01-27T08:02:07;99582.66;;;6.85;78.34
69879;BME280;57161;43.136;24.706;2024-01-27T08:04:32;99587.22;;;6.77;78.77
69879;BME280;57161;43.136;24.706;2024-01-27T08:06:58;99600.53;;;6.95;78.63
69879;BME280;57161;43.136;24.706;2024-01-27T08:09:23;99606.34;;;6.97;79.29
69879;BME280;57161;43.136;24.706;2024-01-27T08:11:50;99597.31;;;6.85;80.37
69879;BME280;57161;43.136;24.706;2024-01-27T08:14:18;99566.53;;;6.61;80.74
69879;BME280;57161;43.136;24.706;2024-01-27T08:16:43;99585.97;;;6.67;80.02
69879;BME280;57161;43.136;24.706;2024-01-27T08:19:09;99576.38;;;6.73;78.92
69879;BME280;57161;43.136;24.706;2024-01-27T08:21:34;99572.88;;;6.50;79.72
69879;BME280;57161;43.136;24.706;2024-01-27T08:24:00;99607.66;;;6.79;79.28
69879;BME280;57161;43.136;24.706;2024-01-27T08:26:25;99594.53;;;6.80;78.04
69879;BME280;57161;43.136;24.706;2024-01-27T08:28:51;99584.97;;;6.70;78.90
69879;BME280;57161;43.136;24.706;2024-01-27T08:31:16;99598.06;;;6.86;77.87
69879;BME280;57161;43.136;24.706;2024-01-27T08:33:42;99594.28;;;6.78;77.73
69879;BME280;57161;43.136;24.706;2024-01-27T08:36:07;99593.72;;;6.96;77.50
69879;BME280;57161;43.136;24.706;2024-01-27T08:38:33;99586.69;;;6.89;77.29
69879;BME280;57161;43.136;24.706;2024-01-27T08:40:58;99564.50;;;6.73;77.46
69879;BME280;57161;43.136;24.706;2024-01-27T08:43:24;99604.56;;;7.05;77.01
69879;BME280;57161;43.136;24.706;2024-01-27T08:45:49;99585.94;;;6.89;76.30
69879;BME280;57161;43.136;24.706;2024-01-27T08:48:14;99583.13;;;6.95;76.60
69879;BME280;57161;43.136;24.706;2024-01-27T08:50:41;99602.78;;;7.08;75.97
69879;BME280;57161;43.136;24.706;2024-01-27T08:53:07;99599.50;;;7.09;75.97
69879;BME280;57161;43.136;24.706;2024-01-27T08:55:32;99612.13;;;7.10;75.55
69879;BME280;57161;43.136;24.706;2024-01-27T08:57:57;99625.25;;;7.15;75.13
69879;BME280;57161;43.136;24.706;2024-01-27T09:00:23;99605.53;;;7.13;74.09
69879;BME280;57161;43.136;24.706;2024-01-27T09:02:49;99620.94;;;7.20;73.35
69879;BME280;57161;43.136;24.706;2024-01-27T09:05:14;99627.25;;;7.20;72.80
69879;BME280;57161;43.136;24.706;2024-01-27T09:07:40;99631.53;;;7.27;72.86
69879;BME280;57161;43.136;24.706;2024-01-27T09:10:06;99626.47;;;7.26;72.37
69879;BME280;57161;43.136;24.706;2024-01-27T09:12:32;99616.41;;;7.17;73.04
69879;BME280;57161;43.136;24.706;2024-01-27T09:14:58;99641.09;;;7.32;71.25
69879;BME280;57161;43.136;24.706;2024-01-27T09:17:24;99632.28;;;7.33;69.96
69879;BME280;57161;43.136;24.706;2024-01-27T09:19:49;99615.13;;;7.23;71.24
69879;BME280;57161;43.136;24.706;2024-01-27T09:22:16;99632.03;;;7.26;70.42
69879;BME280;57161;43.136;24.706;2024-01-27T09:24:41;99603.28;;;7.12;69.19
69879;BME280;57161;43.136;24.706;2024-01-27T09:27:07;99602.00;;;7.18;68.29
69879;BME280;57161;43.136;24.706;2024-01-27T09:29:32;99638.75;;;7.47;67.93
69879;BME280;57161;43.136;24.706;2024-01-27T09:31:57;99606.97;;;7.37;67.41
69879;BME280;57161;43.136;24.706;2024-01-27T09:34:23;99627.59;;;7.58;67.85
69879;BME280;57161;43.136;24.706;2024-01-27T09:36:49;99623.59;;;7.53;66.13
69879;BME280;57161;43.136;24.706;2024-01-27T09:39:14;99643.69;;;7.76;66.54
69879;BME280;57161;43.136;24.706;2024-01-27T09:41:40;99648.78;;;7.72;66.33
69879;BME280;57161;43.136;24.706;2024-01-27T09:44:06;99633.41;;;7.60;66.82
69879;BME280;57161;43.136;24.706;2024-01-27T09:46:32;99616.53;;;7.47;66.24
69879;BME280;57161;43.136;24.706;2024-01-27T09:48:58;99649.81;;;7.64;66.50
69879;BME280;57161;43.136;24.706;2024-01-27T09:51:25;99641.81;;;7.49;67.60
69879;BME280;57161;43.136;24.706;2024-01-27T09:53:51;99638.75;;;7.47;67.83
69879;BME280;57161;43.136;24.706;2024-01-27T09:56:17;99665.56;;;7.50;68.02
69879;BME280;57161;43.136;24.706;2024-01-27T09:58:47;99687.56;;;7.42;67.27
69879;BME280;57161;43.136;24.706;2024-01-27T10:01:16;99604.53;;;7.16;67.58
69879;BME280;57161;43.136;24.706;2024-01-27T10:03:46;99647.41;;;7.38;67.59
69879;BME280;57161;43.136;24.706;2024-01-27T10:06:12;99653.69;;;7.44;68.40
69879;BME280;57161;43.136;24.706;2024-01-27T10:08:38;99663.47;;;7.62;68.09
69879;BME280;57161;43.136;24.706;2024-01-27T10:11:07;99656.41;;;7.66;67.51
69879;BME280;57161;43.136;24.706;2024-01-27T10:13:34;99660.94;;;7.69;67.80
69879;BME280;57161;43.136;24.706;2024-01-27T10:16:04;99675.78;;;7.77;67.46
69879;BME280;57161;43.136;24.706;2024-01-27T10:18:31;99642.16;;;7.81;68.30
69879;BME280;57161;43.136;24.706;2024-01-27T10:20:57;99659.09;;;7.83;67.64
69879;BME280;57161;43.136;24.706;2024-01-27T10:23:23;99671.03;;;7.72;66.62
69879;BME280;57161;43.136;24.706;2024-01-27T10:25:49;99663.47;;;7.67;67.24
69879;BME280;57161;43.136;24.706;2024-01-27T10:28:15;99660.19;;;7.69;66.66
69879;BME280;57161;43.136;24.706;2024-01-27T10:30:41;99665.19;;;7.81;66.42
69879;BME280;57161;43.136;24.706;2024-01-27T10:33:11;99654.63;;;7.69;67.07
69879;BME280;57161;43.136;24.706;2024-01-27T10:35:38;99683.50;;;8.07;66.98
69879;BME280;57161;43.136;24.706;2024-01-27T10:38:03;99686.38;;;7.90;65.96
69879;BME280;57161;43.136;24.706;2024-01-27T10:40:29;99708.38;;;7.88;67.22
69879;BME280;57161;43.136;24.706;2024-01-27T10:43:15;99705.81;;;7.96;67.78
69879;BME280;57161;43.136;24.706;2024-01-27T10:45:43;99665.47;;;7.72;67.90
69879;BME280;57161;43.136;24.706;2024-01-27T10:48:10;99680.69;;;7.60;68.36
69879;BME280;57161;43.136;24.706;2024-01-27T10:50:38;99709.44;;;7.74;69.53
69879;BME280;57161;43.136;24.706;2024-01-27T10:53:05;99701.59;;;7.78;67.86
69879;BME280;57161;43.136;24.706;2024-01-27T10:55:34;99685.22;;;7.69;67.43
69879;BME280;57161;43.136;24.706;2024-01-27T10:58:03;99713.50;;;7.73;66.47
69879;BME280;57161;43.136;24.706;2024-01-27T11:00:29;99681.94;;;7.65;66.11
69879;BME280;57161;43.136;24.706;2024-01-27T11:02:59;99707.06;;;7.95;66.87
69879;BME280;57161;43.136;24.706;2024-01-27T11:05:27;99712.72;;;7.83;66.67
69879;BME280;57161;43.136;24.706;2024-01-27T11:07:54;99717.91;;;8.04;66.23
69879;BME280;57161;43.136;24.706;2024-01-27T11:10:20;99714.41;;;7.98;66.52
69879;BME280;57161;43.136;24.706;2024-01-27T11:12:47;99730.84;;;8.01;66.91
69879;BME280;57161;43.136;24.706;2024-01-27T11:15:13;99723.03;;;7.89;67.83
69879;BME280;57161;43.136;24.706;2024-01-27T11:17:40;99727.69;;;7.69;67.72
69879;BME280;57161;43.136;24.706;2024-01-27T11:20:08;99671.94;;;7.28;67.30
69879;BME280;57161;43.136;24.706;2024-01-27T11:22:33;99743.41;;;7.56;68.26
69879;BME280;57161;43.136;24.706;2024-01-27T11:27:38;99726.22;;;7.46;67.55
69879;BME280;57161;43.136;24.706;2024-01-27T11:30:04;99678.03;;;7.15;66.73
69879;BME280;57161;43.136;24.706;2024-01-27T11:32:30;99735.78;;;7.62;67.55
69879;BME280;57161;43.136;24.706;2024-01-27T11:34:56;99748.16;;;7.72;67.04
69879;BME280;57161;43.136;24.706;2024-01-27T11:37:22;99716.84;;;7.60;67.14
69879;BME280;57161;43.136;24.706;2024-01-27T11:39:51;99735.03;;;7.67;66.66
69879;BME280;57161;43.136;24.706;2024-01-27T11:42:17;99735.50;;;7.71;67.06
69879;BME280;57161;43.136;24.706;2024-01-27T11:44:43;99746.09;;;7.78;66.47
69879;BME280;57161;43.136;24.706;2024-01-27T11:47:17;99732.75;;;7.65;67.30
69879;BME280;57161;43.136;24.706;2024-01-27T11:49:55;99730.72;;;7.71;66.55
69879;BME280;57161;43.136;24.706;2024-01-27T11:52:23;99725.88;;;7.83;66.89
69879;BME280;57161;43.136;24.706;2024-01-27T11:54:59;99755.66;;;7.94;66.39
69879;BME280;57161;43.136;24.706;2024-01-27T11:57:25;99743.53;;;7.91;66.27
69879;BME280;57161;43.136;24.706;2024-01-27T11:59:52;99768.72;;;8.10;66.81
69879;BME280;57161;43.136;24.706;2024-01-27T12:02:18;99761.41;;;8.07;66.69
69879;BME280;57161;43.136;24.706;2024-01-27T12:04:44;99765.63;;;8.25;66.52
69879;BME280;57161;43.136;24.706;2024-01-27T12:07:09;99753.94;;;8.37;65.83
69879;BME280;57161;43.136;24.706;2024-01-27T12:09:36;99775.28;;;8.12;66.27
69879;BME280;57161;43.136;24.706;2024-01-27T12:12:02;99783.41;;;8.10;66.51
69879;BME280;57161;43.136;24.706;2024-01-27T12:14:38;99764.50;;;7.98;66.37
69879;BME280;57161;43.136;24.706;2024-01-27T12:17:04;99781.84;;;8.21;66.76
69879;BME280;57161;43.136;24.706;2024-01-27T12:19:30;99782.84;;;8.23;66.51
69879;BME280;57161;43.136;24.706;2024-01-27T12:21:57;99768.63;;;8.32;66.17
69879;BME280;57161;43.136;24.706;2024-01-27T12:24:24;99715.22;;;7.87;65.11
69879;BME280;57161;43.136;24.706;2024-01-27T12:26:49;99756.41;;;8.00;65.40
69879;BME280;57161;43.136;24.706;2024-01-27T12:29:15;99767.22;;;8.15;65.01
69879;BME280;57161;43.136;24.706;2024-01-27T12:31:41;99776.28;;;8.21;65.10
69879;BME280;57161;43.136;24.706;2024-01-27T12:34:07;99776.69;;;7.83;65.10
69879;BME280;57161;43.136;24.706;2024-01-27T12:36:33;99718.41;;;7.50;65.82
69879;BME280;57161;43.136;24.706;2024-01-27T12:39:00;99765.81;;;7.80;65.39
69879;BME280;57161;43.136;24.706;2024-01-27T12:41:27;99787.03;;;7.89;65.25
69879;BME280;57161;43.136;24.706;2024-01-27T12:43:54;99791.38;;;7.84;65.79
69879;BME280;57161;43.136;24.706;2024-01-27T12:46:19;99791.06;;;7.93;66.01
69879;BME280;57161;43.136;24.706;2024-01-27T12:48:45;99801.44;;;7.93;66.16
69879;BME280;57161;43.136;24.706;2024-01-27T12:51:11;99776.94;;;7.80;66.13
69879;BME280;57161;43.136;24.706;2024-01-27T12:53:41;99797.94;;;7.81;66.59
69879;BME280;57161;43.136;24.706;2024-01-27T12:56:10;99803.97;;;7.91;66.99